createdAt,value
2023-07-25T00:02:12.698Z,94086.75
2023-07-25T00:04:40.346Z,94087.25
2023-07-25T00:07:09.376Z,94092.75
2023-07-25T00:09:37.034Z,94094.69
2023-07-25T00:12:05.179Z,94092.75
2023-07-25T00:14:34.621Z,94094.81
2023-07-25T00:17:02.306Z,94099.50
2023-07-25T00:19:29.968Z,94097.56
2023-07-25T00:21:57.671Z,94093.19
2023-07-25T00:24:26.787Z,94090.75
2023-07-25T00:26:54.517Z,94085.84
2023-07-25T00:29:22.174Z,94072.09
2023-07-25T00:31:49.872Z,94067.44
2023-07-25T00:34:17.538Z,94068.72
2023-07-25T00:36:45.230Z,94063.22
2023-07-25T00:39:13.063Z,94065.28
2023-07-25T00:41:42.100Z,94069.16
2023-07-25T00:44:10.010Z,94058.47
2023-07-25T00:46:37.803Z,94062.66
2023-07-25T00:49:06.871Z,94064.09
2023-07-25T00:51:34.745Z,94049.22
2023-07-25T00:54:03.037Z,94031.91
2023-07-25T00:56:30.721Z,94048.91
2023-07-25T00:58:59.736Z,94053.78
2023-07-25T01:01:29.454Z,94049.41
2023-07-25T01:03:57.507Z,94050.81
2023-07-25T01:06:25.230Z,94039.50
2023-07-25T01:08:54.311Z,94038.03
2023-07-25T01:11:22.631Z,94036.53
2023-07-25T01:13:50.756Z,94045.88
2023-07-25T01:16:24.096Z,94039.41
2023-07-25T01:18:52.825Z,94025.81
2023-07-25T01:21:21.450Z,94023.56
2023-07-25T01:23:49.339Z,94039.28
2023-07-25T01:26:19.585Z,94056.28
2023-07-25T01:28:47.250Z,94058.22
2023-07-25T01:31:14.959Z,94055.47
2023-07-25T01:33:42.637Z,94057.22
2023-07-25T01:36:10.285Z,94049.28
2023-07-25T01:38:37.950Z,94053.66
2023-07-25T01:41:05.637Z,94047.78
2023-07-25T01:43:34.657Z,94059.09
2023-07-25T01:46:02.349Z,94056.03
2023-07-25T01:48:30.054Z,94048.91
2023-07-25T01:50:58.594Z,94028.81
2023-07-25T01:53:26.262Z,94027.19
2023-07-25T01:55:53.909Z,93997.25
2023-07-25T01:58:21.545Z,93963.09
2023-07-25T02:00:49.586Z,93944.59
2023-07-25T02:03:19.401Z,93930.34
2023-07-25T02:05:47.332Z,93946.28
2023-07-25T02:08:15.445Z,93980.69
2023-07-25T02:10:43.108Z,93988.09
2023-07-25T02:13:10.802Z,93994.00
2023-07-25T02:15:38.557Z,93982.56
2023-07-25T02:18:07.534Z,93972.06
2023-07-25T02:20:35.203Z,93974.31
2023-07-25T02:23:03.570Z,93966.69
2023-07-25T02:25:31.384Z,93960.16
2023-07-25T02:27:59.093Z,93950.00
2023-07-25T02:30:26.754Z,93950.81
2023-07-25T02:32:54.484Z,93950.81
2023-07-25T02:35:23.498Z,93964.38
2023-07-25T02:37:51.208Z,93954.19
2023-07-25T02:40:18.889Z,93964.56
2023-07-25T02:42:46.546Z,93965.66
2023-07-25T02:45:14.208Z,93955.81
2023-07-25T02:47:41.903Z,93951.44
2023-07-25T02:50:10.256Z,93933.28
2023-07-25T02:52:39.267Z,93930.66
2023-07-25T02:55:07.476Z,93918.69
2023-07-25T02:57:35.152Z,93904.94
2023-07-25T03:00:02.823Z,93901.69
2023-07-25T03:02:30.626Z,93904.88
2023-07-25T03:04:58.348Z,93927.06
2023-07-25T03:07:26.009Z,93933.00
2023-07-25T03:09:55.092Z,93934.38
2023-07-25T03:12:22.764Z,93919.75
2023-07-25T03:14:50.399Z,93906.19
2023-07-25T03:17:18.068Z,93899.06
2023-07-25T03:19:45.706Z,93905.06
2023-07-25T03:22:13.398Z,93904.03
2023-07-25T03:24:41.164Z,93903.75
2023-07-25T03:27:10.196Z,93902.00
2023-07-25T03:29:37.923Z,93910.75
2023-07-25T03:32:05.878Z,93906.06
2023-07-25T03:34:33.519Z,93910.25
2023-07-25T03:37:01.191Z,93901.19
2023-07-25T03:39:28.856Z,93897.31
2023-07-25T03:41:56.553Z,93908.31
2023-07-25T03:44:25.524Z,93910.56
2023-07-25T03:46:53.184Z,93912.28
2023-07-25T03:49:20.820Z,93903.56
2023-07-25T03:51:48.871Z,93910.38
2023-07-25T03:54:16.541Z,93909.16
2023-07-25T03:56:44.196Z,93920.16
2023-07-25T03:59:11.826Z,93916.28
2023-07-25T04:01:40.872Z,93908.53
2023-07-25T04:04:08.632Z,93918.94
2023-07-25T04:06:36.379Z,93916.19
2023-07-25T04:09:04.073Z,93922.19
2023-07-25T04:11:31.950Z,93912.81
2023-07-25T04:13:59.876Z,93912.50
2023-07-25T04:16:27.568Z,93911.00
2023-07-25T04:18:56.629Z,93907.72
2023-07-25T04:21:24.350Z,93917.72
2023-07-25T04:23:51.999Z,93926.88
2023-07-25T04:26:19.737Z,93926.69
2023-07-25T04:28:49.393Z,93932.19
2023-07-25T04:31:17.451Z,93929.94
2023-07-25T04:33:45.103Z,93921.38
2023-07-25T04:36:14.110Z,93927.41
2023-07-25T04:38:42.341Z,93917.53
2023-07-25T04:41:10.072Z,93923.81
2023-07-25T04:43:37.725Z,93923.03
2023-07-25T04:46:05.441Z,93926.88
2023-07-25T04:48:33.153Z,93926.88
2023-07-25T04:51:00.850Z,93917.03
2023-07-25T04:53:29.822Z,93909.59
2023-07-25T04:55:57.507Z,93901.03
2023-07-25T04:58:25.120Z,93884.34
2023-07-25T05:00:53.002Z,93892.91
2023-07-25T05:03:20.832Z,93883.03
2023-07-25T05:05:48.535Z,93877.03
2023-07-25T05:08:16.185Z,93883.66
2023-07-25T05:10:45.192Z,93880.59
2023-07-25T05:13:12.834Z,93873.78
2023-07-25T05:15:40.565Z,93866.66
2023-07-25T05:18:08.253Z,93858.41
2023-07-25T05:20:35.915Z,93846.75
2023-07-25T05:23:03.626Z,93836.56
2023-07-25T05:25:31.271Z,93831.69
2023-07-25T05:28:00.240Z,93826.19
2023-07-25T05:30:27.907Z,93834.13
2023-07-25T05:32:55.708Z,93835.75
2023-07-25T05:35:23.436Z,93822.63
2023-07-25T05:37:51.132Z,93811.03
2023-07-25T05:40:18.786Z,93810.72
2023-07-25T05:42:46.431Z,93811.22
2023-07-25T05:45:15.508Z,93821.09
2023-07-25T05:47:43.585Z,93829.19
2023-07-25T05:50:11.864Z,93827.44
2023-07-25T05:52:39.752Z,93819.19
2023-07-25T05:55:08.939Z,93815.81
2023-07-25T05:57:36.751Z,93809.66
2023-07-25T06:00:05.442Z,93810.63
2023-07-25T06:02:34.771Z,93804.34
2023-07-25T06:05:02.884Z,93811.66
2023-07-25T06:07:30.617Z,93813.75
2023-07-25T06:09:59.337Z,93819.75
2023-07-25T06:12:27.128Z,93819.06
2023-07-25T06:14:55.009Z,93829.88
2023-07-25T06:17:22.918Z,93817.47
2023-07-25T06:19:52.261Z,93802.97
2023-07-25T06:22:20.205Z,93786.97
2023-07-25T06:24:49.050Z,93787.78
2023-07-25T06:27:24.991Z,93799.97
2023-07-25T06:29:54.635Z,93808.75
2023-07-25T06:32:24.292Z,93814.28
2023-07-25T06:34:53.728Z,93826.47
2023-07-25T06:37:21.770Z,93824.56
2023-07-25T06:39:50.573Z,93809.66
2023-07-25T06:42:18.469Z,93820.22
2023-07-25T06:44:46.492Z,93826.72
2023-07-25T06:47:14.293Z,93826.44
2023-07-25T06:49:42.293Z,93842.78
2023-07-25T06:52:13.255Z,93844.41
2023-07-25T06:54:47.927Z,93842.47
2023-07-25T07:03:59.869Z,93821.13
2023-07-25T07:06:47.655Z,93837.69
2023-07-25T07:09:16.788Z,93842.53
2023-07-25T07:11:51.328Z,93845.97
2023-07-25T07:14:19.165Z,93856.97
2023-07-25T07:20:34.929Z,93863.47
2023-07-25T07:23:09.891Z,93874.78
2023-07-25T07:25:39.674Z,93865.09
2023-07-25T07:28:50.915Z,93879.69
2023-07-25T07:31:29.536Z,93900.19
2023-07-25T07:34:10.690Z,93906.53
2023-07-25T07:36:41.426Z,93906.00
2023-07-25T07:39:19.407Z,93900.31
2023-07-25T07:41:48.494Z,93898.31
2023-07-25T07:44:25.645Z,93916.75
2023-07-25T07:46:53.550Z,93921.25
2023-07-25T07:49:21.215Z,93914.78
2023-07-25T07:52:05.052Z,93920.72
2023-07-25T07:54:36.557Z,93907.28
2023-07-25T07:57:05.903Z,93894.16
2023-07-25T07:59:33.583Z,93905.44
2023-07-25T08:02:01.259Z,93923.03
2023-07-25T08:04:29.150Z,93918.66
2023-07-25T08:06:57.587Z,93918.78
2023-07-25T08:09:25.495Z,93913.28
2023-07-25T08:11:53.359Z,93917.97
2023-07-25T08:14:22.516Z,93920.06
2023-07-25T08:16:50.508Z,93912.13
2023-07-25T08:19:18.323Z,93911.72
2023-07-25T08:21:46.192Z,93909.94
2023-07-25T08:24:14.124Z,93902.44
2023-07-25T08:26:42.168Z,93903.56
2023-07-25T08:29:10.092Z,93910.38
2023-07-25T08:31:39.343Z,93913.81
2023-07-25T08:34:07.089Z,93918.38
2023-07-25T08:36:34.956Z,93909.94
2023-07-25T08:39:02.980Z,93920.75
2023-07-25T08:41:33.427Z,93921.56
2023-07-25T08:44:03.575Z,93928.19
2023-07-25T08:46:32.952Z,93924.00
2023-07-25T08:49:03.567Z,93925.59
2023-07-25T08:51:35.526Z,93924.19
2023-07-25T08:54:04.961Z,93933.53
2023-07-25T08:56:32.849Z,93926.63
2023-07-25T08:59:01.281Z,93919.97
2023-07-25T09:01:29.756Z,93938.91
2023-07-25T09:03:58.149Z,93937.31
2023-07-25T09:06:33.119Z,93939.03
2023-07-25T09:09:01.180Z,93952.19
2023-07-25T09:11:29.256Z,93954.00
2023-07-25T09:13:57.440Z,93955.72
2023-07-25T09:16:25.301Z,93950.13
2023-07-25T09:18:53.130Z,93949.31
2023-07-25T09:21:20.960Z,93938.00
2023-07-25T09:23:57.723Z,93932.34
2023-07-25T09:26:27.351Z,93934.31
2023-07-25T09:28:59.779Z,93933.06
2023-07-25T09:31:29.670Z,93940.88
2023-07-25T09:33:58.354Z,93942.88
2023-07-25T09:36:32.645Z,93938.53
2023-07-25T09:39:02.815Z,93935.78
2023-07-25T09:41:30.994Z,93934.03
2023-07-25T09:44:03.708Z,93928.88
2023-07-25T09:46:31.483Z,93916.94
2023-07-25T09:48:59.342Z,93920.97
2023-07-25T09:51:29.396Z,93935.94
2023-07-25T09:53:58.696Z,93931.78
2023-07-25T09:56:28.567Z,93937.69
2023-07-25T10:01:27.862Z,93939.50
2023-07-25T10:03:55.782Z,93940.81
2023-07-25T10:06:23.891Z,93925.09
2023-07-25T10:08:52.229Z,93928.03
2023-07-25T10:11:21.132Z,93929.81
2023-07-25T10:13:52.204Z,93919.78
2023-07-25T10:16:21.443Z,93931.78
2023-07-25T10:18:55.000Z,93924.31
2023-07-25T10:21:26.997Z,93929.19
2023-07-25T10:23:57.321Z,93931.31
2023-07-25T10:26:25.175Z,93925.13
2023-07-25T10:28:54.587Z,93927.75
2023-07-25T10:31:31.669Z,93921.09
2023-07-25T10:34:00.752Z,93923.38
2023-07-25T10:36:28.506Z,93929.84
2023-07-25T10:39:06.068Z,93923.84
2023-07-25T10:41:34.176Z,93923.22
2023-07-25T10:44:04.091Z,93930.38
2023-07-25T10:46:33.310Z,93924.00
2023-07-25T10:49:01.689Z,93925.19
2023-07-25T10:51:51.084Z,93931.19
2023-07-25T10:54:19.306Z,93923.56
2023-07-25T10:57:19.648Z,93926.81
2023-07-25T11:00:02.635Z,93931.25
2023-07-25T11:02:31.966Z,93919.06
2023-07-25T11:05:22.975Z,93914.25
2023-07-25T11:07:51.981Z,93909.28
2023-07-25T11:10:21.314Z,93898.72
2023-07-25T11:12:52.100Z,93894.50
2023-07-25T11:15:28.999Z,93890.09
2023-07-25T11:18:08.794Z,93891.28
2023-07-25T11:20:36.788Z,93888.50
2023-07-25T11:23:04.907Z,93894.06
2023-07-25T11:25:32.659Z,93900.50
2023-07-25T11:28:00.709Z,93889.06
2023-07-25T11:30:30.708Z,93893.13
2023-07-25T11:32:58.582Z,93889.44
2023-07-25T11:35:26.771Z,93887.06
2023-07-25T11:38:02.614Z,93882.72
2023-07-25T11:40:31.113Z,93876.28
2023-07-25T11:42:59.430Z,93878.34
2023-07-25T11:45:27.393Z,93876.75
2023-07-25T11:47:56.865Z,93877.53
2023-07-25T11:50:30.119Z,93901.44
2023-07-25T11:53:00.116Z,93896.59
2023-07-25T11:55:28.257Z,93908.53
2023-07-25T11:57:56.092Z,93903.44
2023-07-25T12:00:25.256Z,93886.28
2023-07-25T12:02:53.037Z,93885.75
2023-07-25T12:05:30.195Z,93880.59
2023-07-25T12:08:01.714Z,93878.84
2023-07-25T12:10:29.860Z,93878.50
2023-07-25T12:12:58.277Z,93875.59
2023-07-25T12:15:43.669Z,93869.41
2023-07-25T12:18:15.832Z,93876.84
2023-07-25T12:20:57.310Z,93874.31
2023-07-25T12:23:30.245Z,93876.69
2023-07-25T12:25:58.925Z,93883.34
2023-07-25T12:28:26.808Z,93894.88
2023-07-25T12:30:54.485Z,93892.13
2023-07-25T12:33:22.354Z,93886.63
2023-07-25T12:35:51.803Z,93878.50
2023-07-25T12:38:19.443Z,93874.84
2023-07-25T12:40:47.108Z,93873.28
2023-07-25T12:43:14.800Z,93865.97
2023-07-25T12:45:43.451Z,93861.50
2023-07-25T12:48:12.184Z,93857.81
2023-07-25T12:50:42.275Z,93851.16
2023-07-25T12:53:11.311Z,93851.25
2023-07-25T12:55:39.544Z,93860.59
2023-07-25T12:58:07.210Z,93856.25
2023-07-25T13:00:34.932Z,93854.88
2023-07-25T13:03:02.765Z,93837.44
2023-07-25T13:05:30.462Z,93841.34
2023-07-25T13:07:59.019Z,93841.44
2023-07-25T13:10:29.980Z,93842.69
2023-07-25T13:12:57.868Z,93842.63
2023-07-25T13:15:26.044Z,93841.66
2023-07-25T13:17:53.802Z,93843.03
2023-07-25T13:20:22.483Z,93843.00
2023-07-25T13:22:50.183Z,93831.81
2023-07-25T13:25:17.882Z,93829.66
2023-07-25T13:27:46.904Z,93823.63
2023-07-25T13:30:14.591Z,93826.84
2023-07-25T13:32:42.545Z,93829.97
2023-07-25T13:35:10.844Z,93824.41
2023-07-25T13:37:38.553Z,93808.25
2023-07-25T13:40:07.547Z,93807.66
2023-07-25T13:42:35.824Z,93795.44
2023-07-25T13:45:05.614Z,93803.28
2023-07-25T13:47:33.440Z,93814.72
2023-07-25T13:50:01.851Z,93814.59
2023-07-25T13:52:29.627Z,93809.59
2023-07-25T13:54:57.385Z,93816.34
2023-07-25T13:57:31.238Z,93810.88
2023-07-25T14:00:00.639Z,93811.69
2023-07-25T14:02:29.723Z,93818.16
2023-07-25T14:04:57.456Z,93814.13
2023-07-25T14:07:25.247Z,93810.88
2023-07-25T14:09:52.902Z,93815.56
2023-07-25T14:12:20.639Z,93824.34
2023-07-25T14:14:48.330Z,93821.44
2023-07-25T14:17:16.050Z,93838.69
2023-07-25T14:19:46.197Z,93838.44
2023-07-25T14:22:13.862Z,93834.06
2023-07-25T14:24:41.529Z,93842.97
2023-07-25T14:27:09.192Z,93832.25
2023-07-25T14:29:36.964Z,93837.44
2023-07-25T14:32:04.946Z,93831.44
2023-07-25T14:34:32.639Z,93834.81
2023-07-25T14:37:01.717Z,93823.13
2023-07-25T14:39:29.540Z,93829.50
2023-07-25T14:41:57.209Z,93818.25
2023-07-25T14:44:24.929Z,93811.00
2023-07-25T14:46:52.611Z,93811.28
2023-07-25T14:49:20.304Z,93796.38
2023-07-25T14:51:48.003Z,93792.25
2023-07-25T14:54:17.485Z,93793.25
2023-07-25T14:56:45.172Z,93792.66
2023-07-25T14:59:12.859Z,93781.56
2023-07-25T15:01:40.628Z,93789.97
2023-07-25T15:04:08.302Z,93785.09
2023-07-25T15:06:35.992Z,93785.47
2023-07-25T15:09:03.806Z,93788.06
2023-07-25T15:11:32.895Z,93787.09
2023-07-25T15:14:00.813Z,93799.00
2023-07-25T15:16:28.783Z,93803.50
2023-07-25T15:18:57.049Z,93802.00
2023-07-25T15:21:24.945Z,93811.03
2023-07-25T15:23:52.667Z,93817.59
2023-07-25T15:26:20.486Z,93815.38
2023-07-25T15:28:49.809Z,93818.59
2023-07-25T15:31:17.753Z,93811.69
2023-07-25T15:33:45.489Z,93816.31
2023-07-25T15:36:13.334Z,93827.13
2023-07-25T15:38:41.002Z,93828.78
2023-07-25T15:41:08.888Z,93833.03
2023-07-25T15:43:36.692Z,93840.13
2023-07-25T15:46:05.761Z,93840.47
2023-07-25T15:48:33.454Z,93855.34
2023-07-25T15:51:01.103Z,93882.72
2023-07-25T15:53:28.802Z,93902.22
2023-07-25T15:55:56.461Z,93901.94
2023-07-25T15:58:24.090Z,93916.38
2023-07-25T16:00:51.822Z,93924.06
2023-07-25T16:03:20.897Z,93916.69
2023-07-25T16:05:48.658Z,93917.91
2023-07-25T16:08:16.374Z,93923.59
2023-07-25T16:10:46.551Z,93924.94
2023-07-25T16:13:15.634Z,93914.97
2023-07-25T16:15:46.193Z,93925.81
2023-07-25T16:18:13.964Z,93930.84
2023-07-25T16:20:44.086Z,93937.66
2023-07-25T16:23:11.769Z,93949.84
2023-07-25T16:25:39.464Z,93959.75
2023-07-25T16:28:07.197Z,93973.09
2023-07-25T16:30:34.964Z,93973.53
2023-07-25T16:33:02.735Z,93968.97
2023-07-25T16:35:30.492Z,93983.16
2023-07-25T16:38:01.003Z,93982.63
2023-07-25T16:40:29.933Z,93982.75
2023-07-25T16:42:57.633Z,93991.59
2023-07-25T16:45:25.462Z,93992.41
2023-07-25T16:47:53.982Z,93993.44
2023-07-25T16:50:21.769Z,93997.28
2023-07-25T16:52:49.493Z,93990.94
2023-07-25T16:55:18.528Z,93984.38
2023-07-25T16:57:47.340Z,93987.53
2023-07-25T17:00:15.554Z,93988.03
2023-07-25T17:02:43.286Z,93984.97
2023-07-25T17:05:13.514Z,93997.94
2023-07-25T17:07:41.264Z,93996.56
2023-07-25T17:10:09.729Z,94003.00
2023-07-25T17:12:38.745Z,93998.56
2023-07-25T17:15:07.054Z,93995.19
2023-07-25T17:17:34.702Z,94000.19
2023-07-25T17:20:02.917Z,93993.50
2023-07-25T17:22:30.890Z,93996.63
2023-07-25T17:24:58.737Z,93997.06
2023-07-25T17:27:26.411Z,93990.63
2023-07-25T17:29:55.657Z,93994.44
2023-07-25T17:32:23.437Z,93992.41
2023-07-25T17:34:51.167Z,93981.97
2023-07-25T17:37:18.916Z,93986.84
2023-07-25T17:39:46.625Z,93984.47
2023-07-25T17:42:14.320Z,93984.53
2023-07-25T17:44:42.130Z,93985.16
2023-07-25T17:47:11.151Z,93984.88
2023-07-25T17:49:38.868Z,93978.91
2023-07-25T17:52:07.513Z,93969.75
2023-07-25T17:54:35.346Z,93972.19
2023-07-25T17:57:02.987Z,93984.19
2023-07-25T17:59:30.643Z,93984.81
2023-07-25T18:01:58.269Z,93984.53
2023-07-25T18:04:27.343Z,93986.97
2023-07-25T18:06:54.982Z,93993.53
2023-07-25T18:09:22.630Z,93995.31
2023-07-25T18:11:50.303Z,93999.91
2023-07-25T18:14:18.004Z,94006.44
2023-07-25T18:16:45.637Z,94010.81
2023-07-25T18:19:13.262Z,94022.22
2023-07-25T18:21:42.202Z,94024.25
2023-07-25T18:24:09.876Z,94021.81
2023-07-25T18:26:39.054Z,94025.06
2023-07-25T18:29:06.908Z,94023.63
2023-07-25T18:31:34.733Z,94018.06
2023-07-25T18:34:02.893Z,94030.38
2023-07-25T18:36:30.525Z,94023.44
2023-07-25T18:39:01.057Z,94024.38
2023-07-25T18:41:28.901Z,94032.81
2023-07-25T18:43:56.577Z,94039.59
2023-07-25T18:46:24.371Z,94048.97
2023-07-25T18:48:52.077Z,94067.28
2023-07-25T18:51:19.721Z,94074.16
2023-07-25T18:53:47.581Z,94093.63
2023-07-25T18:56:16.598Z,94103.22
2023-07-25T18:58:44.262Z,94101.69
2023-07-25T19:01:12.029Z,94102.69
2023-07-25T19:03:39.733Z,94111.72
2023-07-25T19:06:07.635Z,94110.72
2023-07-25T19:08:36.260Z,94122.19
2023-07-25T19:11:03.920Z,94134.66
2023-07-25T19:13:33.278Z,94114.38
2023-07-25T19:16:00.925Z,94110.81
2023-07-25T19:18:28.714Z,94115.13
2023-07-25T19:20:56.399Z,94119.94
2023-07-25T19:23:27.361Z,94118.22
2023-07-25T19:25:58.925Z,94117.63
2023-07-25T19:28:26.829Z,94112.66
2023-07-25T19:30:56.438Z,94116.09
2023-07-25T19:33:24.229Z,94128.75
2023-07-25T19:35:53.103Z,94132.16
2023-07-25T19:38:20.763Z,94133.97
2023-07-25T19:40:48.406Z,94127.81
2023-07-25T19:43:16.109Z,94131.97
2023-07-25T19:45:45.047Z,94138.09
2023-07-25T19:48:16.100Z,94138.41
2023-07-25T19:50:46.723Z,94138.91
2023-07-25T19:53:14.876Z,94136.75
2023-07-25T19:55:42.878Z,94146.06
2023-07-25T19:58:10.529Z,94144.44
2023-07-25T20:00:38.566Z,94157.38
2023-07-25T20:03:06.493Z,94149.97
2023-07-25T20:05:35.644Z,94164.28
2023-07-25T20:08:03.307Z,94159.66
2023-07-25T20:10:31.093Z,94157.22
2023-07-25T20:12:58.768Z,94160.53
2023-07-25T20:15:26.477Z,94162.19
2023-07-25T20:17:54.203Z,94169.84
2023-07-25T20:20:21.886Z,94175.31
2023-07-25T20:22:52.585Z,94183.34
2023-07-25T20:25:20.535Z,94175.75
2023-07-25T20:27:48.448Z,94176.00
2023-07-25T20:30:16.180Z,94176.53
2023-07-25T20:32:44.103Z,94188.00
2023-07-25T20:38:30.601Z,94197.88
2023-07-25T20:41:07.065Z,94194.81
2023-07-25T20:43:37.748Z,94198.41
2023-07-25T20:46:09.005Z,94200.34
2023-07-25T20:48:37.231Z,94205.53
2023-07-25T20:51:08.245Z,94215.34
2023-07-25T20:53:37.532Z,94217.25
2023-07-25T20:56:18.668Z,94214.75
2023-07-25T20:58:48.532Z,94210.91
2023-07-25T21:01:18.466Z,94214.16
2023-07-25T21:03:46.699Z,94222.34
2023-07-25T21:06:14.751Z,94211.66
2023-07-25T21:08:42.833Z,94207.00
2023-07-25T21:12:01.330Z,94214.13
2023-07-25T21:14:34.890Z,94215.22
2023-07-25T21:17:08.994Z,94220.97
2023-07-25T21:19:36.967Z,94230.03
2023-07-25T21:22:05.095Z,94223.72
2023-07-25T21:24:33.622Z,94226.75
2023-07-25T21:27:03.490Z,94222.69
2023-07-25T21:29:35.482Z,94229.25
2023-07-25T21:32:11.647Z,94239.97
2023-07-25T21:35:17.015Z,94243.06
2023-07-25T21:37:45.043Z,94244.66
2023-07-25T21:40:13.840Z,94235.97
2023-07-25T21:43:01.333Z,94242.09
2023-07-25T21:45:30.774Z,94236.41
2023-07-25T21:47:58.831Z,94244.78
2023-07-25T21:50:26.957Z,94244.44
2023-07-25T21:52:54.960Z,94251.84
2023-07-25T21:55:23.021Z,94253.75
2023-07-25T21:57:51.089Z,94261.66
2023-07-25T22:00:19.167Z,94265.00
2023-07-25T22:02:48.991Z,94269.06
2023-07-25T22:05:17.192Z,94266.56
2023-07-25T22:07:45.493Z,94273.19
2023-07-25T22:10:14.431Z,94264.47
2023-07-25T22:12:43.837Z,94270.25
2023-07-25T22:15:29.071Z,94275.69
2023-07-25T22:17:58.401Z,94269.19
2023-07-25T22:20:31.964Z,94273.03
2023-07-25T22:23:06.444Z,94279.84
2023-07-25T22:25:34.434Z,94267.63
2023-07-25T22:28:02.471Z,94277.19
2023-07-25T22:30:30.627Z,94279.69
2023-07-25T22:33:12.093Z,94300.19
2023-07-25T22:36:03.189Z,94296.94
2023-07-25T22:38:38.675Z,94304.59
2023-07-25T22:41:09.628Z,94308.97
2023-07-25T22:47:28.004Z,94318.25
2023-07-25T22:49:57.461Z,94327.25
2023-07-25T22:52:31.189Z,94334.38
2023-07-25T22:55:02.389Z,94318.25
2023-07-25T22:57:30.327Z,94325.63
2023-07-25T22:59:58.322Z,94322.59
2023-07-25T23:02:26.512Z,94326.19
2023-07-25T23:04:54.731Z,94330.00
2023-07-25T23:07:24.405Z,94325.34
2023-07-25T23:09:54.422Z,94332.44
2023-07-25T23:12:23.443Z,94338.44
2023-07-25T23:14:51.795Z,94343.34
2023-07-25T23:17:19.778Z,94335.72
2023-07-25T23:19:48.150Z,94338.47
2023-07-25T23:22:16.393Z,94343.91
2023-07-25T23:24:46.053Z,94349.88
2023-07-25T23:27:22.546Z,94359.19
2023-07-25T23:29:52.666Z,94361.91
2023-07-25T23:32:20.962Z,94361.34
2023-07-25T23:35:08.564Z,94362.72
2023-07-25T23:37:36.782Z,94361.06
2023-07-25T23:40:09.229Z,94358.59
2023-07-25T23:42:37.364Z,94362.69
2023-07-25T23:45:07.284Z,94371.16
2023-07-25T23:47:36.772Z,94373.09
2023-07-25T23:50:06.560Z,94371.22
2023-07-25T23:52:40.927Z,94380.75
2023-07-25T23:55:11.352Z,94375.84
2023-07-25T23:57:39.582Z,94376.94
